Weather at UMASS Memorial Medical Center-Univ Campus Heliport

Public forecast

Using degrees Fahrenheit for public forecast. Weather courtesy of forecast.io.

Closest aviation weather report (METAR) to UMASS Memorial Medical Center-Univ Campus Heliport

Closest report is Worcester Regional Airport, 5.2 nm (9.6 km) W. Retrieved 2020/09/22 12:54 UTC (21 minutes ago):

KORH 221254Z 36009KT 10SM CLR 12/M02 A3016 RMK AO2 SLP216 T01221017

Closest aviation forecast (TAF) to UMASS Memorial Medical Center-Univ Campus Heliport

Closest forecast is Worcester Regional Airport, 5.2 nm (9.6 km) W. Retrieved 2020/09/22 12:28 UTC (47 minutes ago):

TAF KORH 221125Z 2212/2312 36009KT P6SM FEW250 FM221500 01011G22KT P6SM FEW250 FM222000 35013G26KT P6SM FEW250 FM230100 33013G17KT P6SM FEW250 FM231100 29013KT P6SM SKC